Torquay, United Kingdom
Current Conditions -  °F | °C
As of 8:50 PM on Thursday 25 Dec 2014 (Local Time) from EGDY Reporting Station
Clear Clear  
Wind Chill: 36°   Ceiling: Unl
Heat Index: 36°   Visibility: 6mi
Dew Point: 34°   Wind: 3mph
Humidity: 93%   Direction: 280°W
Pressure: 30.53"   Gusts: NA
Location:  50.47°N, 3.53°W
Report Text: EGDY 252050Z AUTO 28003KT 9999 NCD 02/01 Q1034
Loading
Personal Weather Stations






























Interactive Weather Map New forecast layout! Learn more

10-Day Weather Forecast

Advertisements
Track Severe Weather on mobile